createdAt,value
2018-03-17T00:00:32.150Z,3.10
2018-03-17T00:02:59.300Z,2.60
2018-03-17T00:05:26.290Z,3.27
2018-03-17T00:07:53.293Z,2.73
2018-03-17T00:10:20.292Z,2.57
2018-03-17T00:12:47.512Z,2.97
2018-03-17T00:15:14.500Z,2.63
2018-03-17T00:17:41.496Z,3.10
2018-03-17T00:20:08.496Z,2.47
2018-03-17T00:22:36.602Z,2.77
2018-03-17T00:25:03.594Z,3.03
2018-03-17T00:27:30.633Z,2.67
2018-03-17T00:29:57.610Z,2.67
2018-03-17T00:32:24.896Z,3.00
2018-03-17T00:34:51.891Z,3.40
2018-03-17T00:37:18.898Z,2.70
2018-03-17T00:39:45.967Z,2.90
2018-03-17T00:42:13.082Z,3.10
2018-03-17T00:44:40.107Z,2.80
2018-03-17T00:47:07.268Z,2.97
2018-03-17T00:49:35.020Z,3.47
2018-03-17T00:52:02.780Z,2.60
2018-03-17T00:54:30.549Z,2.50
2018-03-17T00:56:57.558Z,2.70
2018-03-17T00:59:24.574Z,2.47
2018-03-17T01:01:51.558Z,3.07
2018-03-17T01:04:18.571Z,2.93
2018-03-17T01:06:45.568Z,2.73
2018-03-17T01:09:12.565Z,2.60
2018-03-17T01:11:39.561Z,2.73
2018-03-17T01:14:06.591Z,2.63
2018-03-17T01:16:33.578Z,3.07
2018-03-17T01:19:00.584Z,3.00
2018-03-17T01:21:27.583Z,2.10
2018-03-17T01:23:54.734Z,2.30
2018-03-17T01:26:21.723Z,3.00
2018-03-17T01:28:48.721Z,2.50
2018-03-17T01:31:15.715Z,2.67
2018-03-17T01:33:42.728Z,3.00
2018-03-17T01:36:09.722Z,2.93
2018-03-17T01:38:36.769Z,3.00
2018-03-17T01:41:05.268Z,3.63
2018-03-17T01:43:32.368Z,2.73
2018-03-17T01:45:59.384Z,2.80
2018-03-17T01:48:26.381Z,2.83
2018-03-17T01:50:53.378Z,2.30
2018-03-17T01:53:20.553Z,2.77
2018-03-17T01:55:47.554Z,3.07
2018-03-17T01:58:14.546Z,3.00
2018-03-17T02:00:41.547Z,2.80
2018-03-17T02:03:09.359Z,2.60
2018-03-17T02:05:36.365Z,2.50
2018-03-17T02:08:03.357Z,2.23
2018-03-17T02:10:30.366Z,2.40
2018-03-17T02:12:58.158Z,2.80
2018-03-17T02:15:25.160Z,3.00
2018-03-17T02:17:52.155Z,2.67
2018-03-17T02:20:19.178Z,2.53
2018-03-17T02:22:46.350Z,2.30
2018-03-17T02:25:13.337Z,2.83
2018-03-17T02:27:40.345Z,2.70
2018-03-17T02:30:07.343Z,2.77
2018-03-17T02:32:34.544Z,2.43
2018-03-17T02:35:01.529Z,2.50
2018-03-17T02:37:28.528Z,2.80
2018-03-17T02:39:55.524Z,2.90
2018-03-17T02:42:22.737Z,2.90
2018-03-17T02:44:49.733Z,2.80
2018-03-17T02:47:16.741Z,2.40
2018-03-17T02:49:43.745Z,2.83
2018-03-17T02:52:10.924Z,2.97
2018-03-17T02:54:37.932Z,2.60
2018-03-17T02:57:04.941Z,2.93
2018-03-17T02:59:31.926Z,2.40
2018-03-17T03:01:59.702Z,2.50
2018-03-17T03:04:26.722Z,3.20
2018-03-17T03:06:53.714Z,3.10
2018-03-17T03:09:20.701Z,2.63
2018-03-17T03:11:47.721Z,3.30
2018-03-17T03:14:14.700Z,2.87
2018-03-17T03:16:41.700Z,2.80
2018-03-17T03:19:08.698Z,3.27
2018-03-17T03:21:35.699Z,2.90
2018-03-17T03:24:02.766Z,2.87
2018-03-17T03:26:29.777Z,3.30
2018-03-17T03:28:56.774Z,2.87
2018-03-17T03:31:23.786Z,2.77
2018-03-17T03:33:50.939Z,3.40
2018-03-17T03:36:17.946Z,2.80
2018-03-17T03:38:44.953Z,2.90
2018-03-17T03:41:11.944Z,2.80
2018-03-17T03:43:39.728Z,3.00
2018-03-17T03:46:06.726Z,3.07
2018-03-17T03:48:33.726Z,3.30
2018-03-17T03:51:00.760Z,3.43
2018-03-17T03:53:28.540Z,3.13
2018-03-17T03:55:55.538Z,2.90
2018-03-17T03:58:22.554Z,3.30
2018-03-17T04:00:49.539Z,2.40
2018-03-17T04:03:17.342Z,3.00
2018-03-17T04:05:44.334Z,3.07
2018-03-17T04:08:12.830Z,3.10
2018-03-17T04:10:39.846Z,3.20
2018-03-17T04:13:06.982Z,3.33
2018-03-17T04:15:33.972Z,3.57
2018-03-17T04:18:00.996Z,3.50
2018-03-17T04:20:27.996Z,3.20
2018-03-17T04:22:55.159Z,3.07
2018-03-17T04:25:22.143Z,3.10
2018-03-17T04:27:49.136Z,3.10
2018-03-17T04:30:16.178Z,2.90
2018-03-17T04:32:43.967Z,3.60
2018-03-17T04:35:10.967Z,3.77
2018-03-17T04:37:37.968Z,2.90
2018-03-17T04:40:04.968Z,3.73
2018-03-17T04:42:32.167Z,3.10
2018-03-17T04:44:59.154Z,3.33
2018-03-17T04:47:26.236Z,3.13
2018-03-17T04:49:53.229Z,2.77
2018-03-17T04:52:20.360Z,3.27
2018-03-17T04:54:47.353Z,3.13
2018-03-17T04:57:14.344Z,3.33
2018-03-17T04:59:41.346Z,2.83
2018-03-17T05:02:09.344Z,3.60
2018-03-17T05:04:36.343Z,3.93
2018-03-17T05:07:03.329Z,3.00
2018-03-17T05:09:30.320Z,3.00
2018-03-17T05:11:57.388Z,3.00
2018-03-17T05:14:24.369Z,3.77
2018-03-17T05:16:51.354Z,3.37
2018-03-17T05:19:18.367Z,3.13
2018-03-17T05:21:45.357Z,3.13
2018-03-17T05:24:12.345Z,3.37
2018-03-17T05:26:39.336Z,2.83
2018-03-17T05:29:06.329Z,3.50
2018-03-17T05:31:34.099Z,3.47
2018-03-17T05:34:01.232Z,3.33
2018-03-17T05:36:28.239Z,3.43
2018-03-17T05:38:55.230Z,3.10
2018-03-17T05:41:22.229Z,3.17
2018-03-17T05:43:49.385Z,3.33
2018-03-17T05:46:16.387Z,3.60
2018-03-17T05:48:43.404Z,3.60
2018-03-17T05:51:10.449Z,3.57
2018-03-17T05:53:37.577Z,3.80
2018-03-17T05:56:04.599Z,4.00
2018-03-17T05:58:31.598Z,3.70
2018-03-17T06:00:58.615Z,4.07
2018-03-17T06:03:25.952Z,4.07
2018-03-17T06:05:52.955Z,4.57
2018-03-17T06:08:19.959Z,3.70
2018-03-17T06:10:46.963Z,4.10
2018-03-17T06:13:14.769Z,3.90
2018-03-17T06:15:41.799Z,3.83
2018-03-17T06:18:08.802Z,3.93
2018-03-17T06:20:35.804Z,4.00
2018-03-17T06:23:02.966Z,4.67
2018-03-17T06:25:29.962Z,4.47
2018-03-17T06:27:56.959Z,4.80
2018-03-17T06:30:23.962Z,4.33
2018-03-17T06:32:51.760Z,4.63
2018-03-17T06:35:18.752Z,4.63
2018-03-17T06:37:45.744Z,4.13
2018-03-17T06:40:12.743Z,4.37
2018-03-17T06:42:39.960Z,4.77
2018-03-17T06:45:06.965Z,5.07
2018-03-17T06:47:34.737Z,4.43
2018-03-17T06:50:02.497Z,4.60
2018-03-17T06:52:29.576Z,4.80
2018-03-17T06:54:56.583Z,4.17
2018-03-17T06:57:24.355Z,4.80
2018-03-17T06:59:52.138Z,4.93
2018-03-17T07:02:20.097Z,5.13
2018-03-17T07:04:47.160Z,4.87
2018-03-17T07:07:14.160Z,4.50
2018-03-17T07:09:41.157Z,4.33
2018-03-17T07:12:08.264Z,4.10
2018-03-17T07:14:35.260Z,4.90
2018-03-17T07:17:02.489Z,4.80
2018-03-17T07:19:29.490Z,5.17
2018-03-17T07:21:56.497Z,4.67
2018-03-17T07:24:23.485Z,4.80
2018-03-17T07:26:50.483Z,5.60
2018-03-17T07:29:17.478Z,5.00
2018-03-17T07:31:44.475Z,5.83
2018-03-17T07:34:11.485Z,4.90
2018-03-17T07:36:38.479Z,5.03
2018-03-17T07:39:05.474Z,4.90
2018-03-17T07:41:32.487Z,5.50
2018-03-17T07:43:59.632Z,5.80
2018-03-17T07:46:26.623Z,5.27
2018-03-17T07:48:54.390Z,4.97
2018-03-17T07:51:21.427Z,5.13
2018-03-17T07:53:48.636Z,4.90
2018-03-17T07:56:15.630Z,5.47
2018-03-17T07:58:43.394Z,5.87
2018-03-17T08:01:10.382Z,5.60
2018-03-17T08:03:37.486Z,6.00
2018-03-17T08:06:04.480Z,5.00
2018-03-17T08:08:31.472Z,6.30
2018-03-17T08:10:58.479Z,5.23
2018-03-17T08:13:25.635Z,6.07
2018-03-17T08:15:52.641Z,5.53
2018-03-17T08:18:19.646Z,5.97
2018-03-17T08:20:46.651Z,5.83
2018-03-17T08:23:13.821Z,6.10
2018-03-17T08:25:40.828Z,6.50
2018-03-17T08:28:07.834Z,6.30
2018-03-17T08:30:34.846Z,5.50
2018-03-17T08:33:02.042Z,6.03
2018-03-17T08:35:29.040Z,6.13
2018-03-17T08:37:56.044Z,5.10
2018-03-17T08:40:23.044Z,6.10
2018-03-17T08:42:50.082Z,7.17
2018-03-17T08:45:17.327Z,5.80
2018-03-17T08:47:44.338Z,6.03
2018-03-17T08:50:11.334Z,5.57
2018-03-17T08:52:38.402Z,6.00
2018-03-17T08:55:05.411Z,6.67
2018-03-17T08:57:32.421Z,6.07
2018-03-17T08:59:59.525Z,6.10
2018-03-17T09:02:26.589Z,7.93
2018-03-17T09:04:53.607Z,6.73
2018-03-17T09:07:20.626Z,6.37
2018-03-17T09:09:47.712Z,7.60
2018-03-17T09:12:14.796Z,7.83
2018-03-17T09:14:41.807Z,6.50
2018-03-17T09:17:08.807Z,6.43
2018-03-17T09:19:35.809Z,6.23
2018-03-17T09:22:03.134Z,6.20
2018-03-17T09:24:30.130Z,6.30
2018-03-17T09:26:57.147Z,6.83
2018-03-17T09:29:24.148Z,6.40
2018-03-17T09:31:51.356Z,6.90
2018-03-17T09:34:18.372Z,7.03
2018-03-17T09:36:46.260Z,6.37
2018-03-17T09:39:13.275Z,6.90
2018-03-17T09:41:40.372Z,7.87
2018-03-17T09:44:07.386Z,8.07
2018-03-17T09:46:34.368Z,12.10
2018-03-17T09:49:01.371Z,9.00
2018-03-17T09:51:28.366Z,8.90
2018-03-17T09:53:55.452Z,8.53
2018-03-17T09:56:22.449Z,8.80
2018-03-17T09:58:49.471Z,18.60
2018-03-17T10:01:16.536Z,22.13
2018-03-17T10:03:43.660Z,22.73
2018-03-17T10:06:10.666Z,16.60
2018-03-17T10:08:37.667Z,12.30
2018-03-17T10:11:05.444Z,12.23
2018-03-17T10:13:32.600Z,11.83
2018-03-17T10:15:59.599Z,11.50
2018-03-17T10:18:26.605Z,10.60
2018-03-17T10:20:53.600Z,11.13
2018-03-17T10:23:20.806Z,22.40
2018-03-17T10:25:47.800Z,21.77
2018-03-17T10:28:14.822Z,14.97
2018-03-17T10:30:41.836Z,12.13
2018-03-17T10:33:08.996Z,22.93
2018-03-17T10:35:35.993Z,13.63
2018-03-17T10:38:02.993Z,11.70
2018-03-17T10:40:30.015Z,10.90
2018-03-17T10:42:57.211Z,10.43
2018-03-17T10:45:24.221Z,10.40
2018-03-17T10:47:51.290Z,9.17
2018-03-17T10:50:18.277Z,10.27
2018-03-17T10:52:46.995Z,10.43
2018-03-17T10:55:13.992Z,9.77
2018-03-17T10:57:40.999Z,9.47
2018-03-17T11:00:08.006Z,10.07
2018-03-17T11:02:35.223Z,8.97
2018-03-17T11:05:02.213Z,10.07
2018-03-17T11:07:29.219Z,9.80
2018-03-17T11:09:56.230Z,9.73
2018-03-17T11:12:23.390Z,9.70
2018-03-17T11:14:50.399Z,9.90
2018-03-17T11:17:18.501Z,9.57
2018-03-17T11:19:45.493Z,10.53
2018-03-17T11:22:12.599Z,10.67
2018-03-17T11:24:39.602Z,15.90
2018-03-17T11:27:06.595Z,18.17
2018-03-17T11:29:33.612Z,10.73
2018-03-17T11:32:01.410Z,10.70
2018-03-17T11:34:28.400Z,9.40
2018-03-17T11:36:56.906Z,10.50
2018-03-17T11:39:23.931Z,10.57
2018-03-17T11:41:50.924Z,10.30
2018-03-17T11:44:17.947Z,10.27
2018-03-17T11:46:45.708Z,9.80
2018-03-17T11:49:12.751Z,9.80
2018-03-17T11:51:39.793Z,10.00
2018-03-17T11:54:07.011Z,9.80
2018-03-17T11:56:34.028Z,10.47
2018-03-17T11:59:01.035Z,11.40
2018-03-17T12:01:28.141Z,10.50
2018-03-17T12:03:55.289Z,9.57
2018-03-17T12:06:22.314Z,9.93
2018-03-17T12:08:49.308Z,10.60
2018-03-17T12:11:16.308Z,10.47
2018-03-17T12:13:43.473Z,10.10
2018-03-17T12:16:10.486Z,10.00
2018-03-17T12:18:37.490Z,9.60
2018-03-17T12:21:04.510Z,9.67
2018-03-17T12:23:31.663Z,10.97
2018-03-17T12:25:58.675Z,10.27
2018-03-17T12:28:25.716Z,10.73
2018-03-17T12:30:52.703Z,11.03
2018-03-17T12:33:19.857Z,11.20
2018-03-17T12:35:46.857Z,10.23
2018-03-17T12:38:13.853Z,11.13
2018-03-17T12:40:40.854Z,12.03
2018-03-17T12:43:08.662Z,11.87
2018-03-17T12:45:35.682Z,11.60
2018-03-17T12:48:02.685Z,19.80
2018-03-17T12:50:29.679Z,13.73
2018-03-17T12:52:56.874Z,12.40
2018-03-17T12:55:23.877Z,10.60
2018-03-17T12:57:50.896Z,11.10
2018-03-17T13:00:17.952Z,9.90
2018-03-17T13:02:45.046Z,11.00
2018-03-17T13:05:12.051Z,10.87
2018-03-17T13:07:39.053Z,10.63
2018-03-17T13:10:06.065Z,11.67
2018-03-17T13:12:33.239Z,10.77
2018-03-17T13:15:00.247Z,11.33
2018-03-17T13:17:27.539Z,11.87
2018-03-17T13:19:54.530Z,11.30
2018-03-17T13:22:21.624Z,10.10
2018-03-17T13:24:48.624Z,11.30
2018-03-17T13:27:15.647Z,11.27
2018-03-17T13:29:42.640Z,12.03
2018-03-17T13:32:09.830Z,11.20
2018-03-17T13:34:36.861Z,10.30
2018-03-17T13:37:03.854Z,11.17
2018-03-17T13:39:32.371Z,11.00
2018-03-17T13:41:59.441Z,10.90
2018-03-17T13:44:26.454Z,11.40
2018-03-17T13:46:53.466Z,10.37
2018-03-17T13:49:20.495Z,12.00
2018-03-17T13:51:47.499Z,10.73
2018-03-17T13:54:15.260Z,11.30
2018-03-17T13:56:42.273Z,11.03
2018-03-17T13:59:09.278Z,10.40
2018-03-17T14:01:36.298Z,11.30
2018-03-17T14:04:04.045Z,11.30
2018-03-17T14:06:32.561Z,10.10
2018-03-17T14:08:59.550Z,11.40
2018-03-17T14:11:26.600Z,11.53
2018-03-17T14:13:53.734Z,11.40
2018-03-17T14:16:20.728Z,11.27
2018-03-17T14:18:47.729Z,11.13
2018-03-17T14:21:14.714Z,10.73
2018-03-17T14:23:41.913Z,10.40
2018-03-17T14:26:08.921Z,9.90
2018-03-17T14:28:35.927Z,10.23
2018-03-17T14:31:02.948Z,10.50
2018-03-17T14:33:30.102Z,11.47
2018-03-17T14:35:57.117Z,10.27
2018-03-17T14:38:24.125Z,11.17
2018-03-17T14:40:51.127Z,11.20
2018-03-17T14:43:18.922Z,11.83
2018-03-17T14:45:45.914Z,11.03
2018-03-17T14:48:12.931Z,15.00
2018-03-17T14:50:39.937Z,12.53
2018-03-17T14:53:07.102Z,11.23
2018-03-17T14:55:34.095Z,10.30
2018-03-17T14:58:01.106Z,11.13
2018-03-17T15:00:28.443Z,11.70
2018-03-17T15:02:55.504Z,11.27
2018-03-17T15:05:22.496Z,11.13
2018-03-17T15:07:49.505Z,10.17
2018-03-17T15:10:16.510Z,10.10
2018-03-17T15:12:43.711Z,10.47
2018-03-17T15:15:10.706Z,11.40
2018-03-17T15:17:37.805Z,10.80
2018-03-17T15:20:04.802Z,22.10
2018-03-17T15:22:31.908Z,17.80
2018-03-17T15:24:58.914Z,14.33
2018-03-17T15:27:25.957Z,12.17
2018-03-17T15:29:52.964Z,12.23
2018-03-17T15:32:21.097Z,11.20
2018-03-17T15:34:48.099Z,12.07
2018-03-17T15:37:15.120Z,12.87
2018-03-17T15:39:42.118Z,11.60
2018-03-17T15:42:09.278Z,12.33
2018-03-17T15:44:36.282Z,11.97
2018-03-17T15:47:03.306Z,12.83
2018-03-17T15:49:30.290Z,11.87
2018-03-17T15:51:58.093Z,12.37
2018-03-17T15:54:25.117Z,11.40
2018-03-17T15:56:52.164Z,11.70
2018-03-17T15:59:19.175Z,11.13
2018-03-17T16:01:46.946Z,11.80
2018-03-17T16:04:13.934Z,10.73
2018-03-17T16:06:40.944Z,11.57
2018-03-17T16:09:08.007Z,11.33
2018-03-17T16:11:35.005Z,11.90
2018-03-17T16:14:02.029Z,10.93
2018-03-17T16:16:29.038Z,11.33
2018-03-17T16:18:56.839Z,10.60
2018-03-17T16:21:23.900Z,12.20
2018-03-17T16:23:50.925Z,10.70
2018-03-17T16:26:18.782Z,11.00
2018-03-17T16:28:45.834Z,10.80
2018-03-17T16:31:12.902Z,9.90
2018-03-17T16:33:39.959Z,11.67
2018-03-17T16:36:07.012Z,10.37
2018-03-17T16:38:34.031Z,11.83
2018-03-17T16:41:01.273Z,11.37
2018-03-17T16:43:28.337Z,10.47
2018-03-17T16:45:55.337Z,11.30
2018-03-17T16:48:23.109Z,10.77
2018-03-17T16:50:50.877Z,10.70
2018-03-17T16:53:17.961Z,10.57
2018-03-17T16:55:44.964Z,10.80
2018-03-17T16:58:11.984Z,11.20
2018-03-17T17:00:38.996Z,10.53
2018-03-17T17:03:06.167Z,11.07
2018-03-17T17:05:33.163Z,10.80
2018-03-17T17:08:00.175Z,10.67
2018-03-17T17:10:27.197Z,12.97
2018-03-17T17:12:54.353Z,11.87
2018-03-17T17:15:21.594Z,11.00
2018-03-17T17:17:49.744Z,11.30
2018-03-17T17:20:17.598Z,11.80
2018-03-17T17:22:44.597Z,11.17
2018-03-17T17:25:11.628Z,11.00
2018-03-17T17:27:38.638Z,12.73
2018-03-17T17:30:05.645Z,11.30
2018-03-17T17:32:32.789Z,11.57
2018-03-17T17:34:59.788Z,11.63
2018-03-17T17:37:26.793Z,11.47
2018-03-17T17:39:53.798Z,11.40
2018-03-17T17:42:20.990Z,11.13
2018-03-17T17:44:48.010Z,11.10
2018-03-17T17:47:15.022Z,11.47
2018-03-17T17:49:42.015Z,10.60
2018-03-17T17:52:09.163Z,10.97
2018-03-17T17:54:36.171Z,11.00
2018-03-17T17:57:03.172Z,10.63
2018-03-17T17:59:30.188Z,11.10
2018-03-17T18:01:57.359Z,11.00
2018-03-17T18:04:24.403Z,12.77
2018-03-17T18:06:51.389Z,10.83
2018-03-17T18:09:18.407Z,11.30
2018-03-17T18:11:45.417Z,10.83
2018-03-17T18:14:12.442Z,10.50
2018-03-17T18:16:39.451Z,11.00
2018-03-17T18:19:06.455Z,10.90
2018-03-17T18:21:33.465Z,13.27
2018-03-17T18:24:00.537Z,11.60
2018-03-17T18:26:27.602Z,10.30
2018-03-17T18:28:55.375Z,10.90
2018-03-17T18:31:22.378Z,10.30
2018-03-17T18:33:49.592Z,10.60
2018-03-17T18:36:16.613Z,9.97
2018-03-17T18:38:43.629Z,11.30
2018-03-17T18:41:11.419Z,10.60
2018-03-17T18:43:39.210Z,10.13
2018-03-17T18:46:06.217Z,11.70
2018-03-17T18:48:33.224Z,10.97
2018-03-17T18:51:00.273Z,10.33
2018-03-17T18:53:27.417Z,10.83
2018-03-17T18:55:54.413Z,11.07
2018-03-17T18:58:21.433Z,10.50
2018-03-17T19:00:48.439Z,10.30
2018-03-17T19:03:15.593Z,10.38
2018-03-17T19:05:43.777Z,10.00
2018-03-17T19:08:10.898Z,8.43
2018-03-17T19:10:37.973Z,9.00
2018-03-17T19:13:05.207Z,8.60
2018-03-17T19:15:32.224Z,9.87
2018-03-17T19:17:59.223Z,9.63
2018-03-17T19:20:26.246Z,8.40
2018-03-17T19:22:53.407Z,9.23
2018-03-17T19:25:20.444Z,10.40
2018-03-17T19:27:47.451Z,10.17
2018-03-17T19:30:14.490Z,9.13
2018-03-17T19:32:41.696Z,9.23
2018-03-17T19:35:09.440Z,9.37
2018-03-17T19:37:36.458Z,9.90
2018-03-17T19:40:03.546Z,9.57
2018-03-17T19:42:30.626Z,9.60
2018-03-17T19:44:57.671Z,9.10
2018-03-17T19:47:25.517Z,8.20
2018-03-17T19:49:52.527Z,10.00
2018-03-17T19:52:19.636Z,9.27
2018-03-17T19:54:47.874Z,9.60
2018-03-17T19:57:14.878Z,9.37
2018-03-17T19:59:41.898Z,9.77
2018-03-17T20:02:09.038Z,9.97
2018-03-17T20:04:36.059Z,9.17
2018-03-17T20:07:03.108Z,10.10
2018-03-17T20:09:30.106Z,8.63
2018-03-17T20:11:57.150Z,9.07
2018-03-17T20:14:24.191Z,9.60
2018-03-17T20:16:51.206Z,8.90
2018-03-17T20:19:18.278Z,8.97
2018-03-17T20:21:45.279Z,9.67
2018-03-17T20:24:13.086Z,8.70
2018-03-17T20:26:40.120Z,9.60
2018-03-17T20:29:07.226Z,9.50
2018-03-17T20:31:34.236Z,9.13
2018-03-17T20:34:01.661Z,10.00
2018-03-17T20:36:28.672Z,8.50
2018-03-17T20:38:57.202Z,10.43
2018-03-17T20:41:24.305Z,9.17
2018-03-17T20:43:51.552Z,8.60
2018-03-17T20:46:18.642Z,10.17
2018-03-17T20:48:46.407Z,9.07
2018-03-17T20:51:13.430Z,9.50
2018-03-17T20:53:40.556Z,9.77
2018-03-17T20:56:07.550Z,9.10
2018-03-17T20:58:34.573Z,9.80
2018-03-17T21:01:01.579Z,9.50
2018-03-17T21:03:28.710Z,9.73
2018-03-17T21:05:55.746Z,9.70
2018-03-17T21:08:22.730Z,9.73
2018-03-17T21:10:49.765Z,9.70
2018-03-17T21:13:16.977Z,9.93
2018-03-17T21:15:44.753Z,9.67
2018-03-17T21:18:11.772Z,9.60
2018-03-17T21:20:38.768Z,9.60
2018-03-17T21:23:05.937Z,10.70
2018-03-17T21:25:32.930Z,10.20
2018-03-17T21:27:59.967Z,9.30
2018-03-17T21:30:26.977Z,9.40
2018-03-17T21:32:54.108Z,9.27
2018-03-17T21:35:21.106Z,8.60
2018-03-17T21:37:48.131Z,9.80
2018-03-17T21:40:15.149Z,9.90
2018-03-17T21:42:42.286Z,10.80
2018-03-17T21:45:09.286Z,10.57
2018-03-17T21:47:37.189Z,9.80
2018-03-17T21:50:04.181Z,9.17
2018-03-17T21:52:31.306Z,9.53
2018-03-17T21:54:58.542Z,9.63
2018-03-17T21:57:25.563Z,9.77
2018-03-17T21:59:52.601Z,9.53
2018-03-17T22:02:20.183Z,9.73
2018-03-17T22:04:47.245Z,9.03
2018-03-17T22:07:14.310Z,9.67
2018-03-17T22:09:41.309Z,9.73
2018-03-17T22:12:08.518Z,9.17
2018-03-17T22:14:35.511Z,10.00
2018-03-17T22:17:02.525Z,10.30
2018-03-17T22:19:29.585Z,8.97
2018-03-17T22:21:56.570Z,9.60
2018-03-17T22:24:23.564Z,9.93
2018-03-17T22:26:50.567Z,9.63
2018-03-17T22:29:17.565Z,9.77
2018-03-17T22:31:44.575Z,11.10
2018-03-17T22:34:11.570Z,10.47
2018-03-17T22:36:38.568Z,10.10
2018-03-17T22:39:05.571Z,11.13
2018-03-17T22:41:32.610Z,10.70
2018-03-17T22:43:59.720Z,10.30
2018-03-17T22:46:26.714Z,10.60
2018-03-17T22:48:53.772Z,9.43
2018-03-17T22:51:20.779Z,10.23
2018-03-17T22:53:47.907Z,10.60
2018-03-17T22:56:14.907Z,9.90
2018-03-17T22:58:41.930Z,10.20
2018-03-17T23:01:08.942Z,9.80
2018-03-17T23:03:36.158Z,10.13
2018-03-17T23:06:03.913Z,10.37
2018-03-17T23:08:31.191Z,11.10
2018-03-17T23:10:58.359Z,10.27
2018-03-17T23:13:25.510Z,10.23
2018-03-17T23:15:52.505Z,10.30
2018-03-17T23:18:19.591Z,9.53
2018-03-17T23:20:46.688Z,10.03
2018-03-17T23:23:13.800Z,9.37
2018-03-17T23:25:40.826Z,9.23
2018-03-17T23:28:07.829Z,10.33
2018-03-17T23:30:34.825Z,9.40
2018-03-17T23:33:02.035Z,9.80
2018-03-17T23:35:29.019Z,11.07
2018-03-17T23:37:56.013Z,9.60
2018-03-17T23:40:23.014Z,9.47
2018-03-17T23:42:50.185Z,9.97
2018-03-17T23:45:17.242Z,9.10
2018-03-17T23:47:44.253Z,10.17
2018-03-17T23:50:12.199Z,9.90
2018-03-17T23:52:40.197Z,9.83
2018-03-17T23:55:07.191Z,9.70
2018-03-17T23:57:34.210Z,9.77
